Time;durP1;ratioP1;P1;durP2;ratioP2;P2;SDS_P1;SDS_P2;PMS_P1;PMS_P2;Temp;Humidity;BMP_temperature;BMP_pressure;BME280_temperature;BME280_humidity;BME280_pressure;Samples;Min_cycle;Max_cycle;Signal;HPM_P1;HPM_P2
2022/01/05 00:00:06;;;;;;;2.20;2.10;;;11.60;60.00;;;;;;5082003;28;20448;-50
2022/01/05 00:02:32;;;;;;;2.53;2.33;;;11.40;60.30;;;;;;5082554;28;20191;-50
2022/01/05 00:04:57;;;;;;;2.70;2.50;;;11.00;61.50;;;;;;5084471;28;20468;-50
2022/01/05 00:07:23;;;;;;;2.57;2.30;;;10.80;62.40;;;;;;5089667;28;20223;-51
2022/01/05 00:09:49;;;;;;;2.60;2.40;;;10.90;63.00;;;;;;5092152;28;20606;-50
2022/01/05 00:12:15;;;;;;;2.40;2.20;;;10.80;63.00;;;;;;5081721;28;20234;-50
2022/01/05 00:14:40;;;;;;;2.37;2.17;;;11.00;63.20;;;;;;5086778;28;20195;-50
2022/01/05 00:17:06;;;;;;;2.03;1.93;;;11.00;62.50;;;;;;5076644;28;20204;-50
2022/01/05 00:19:34;;;;;;;2.10;1.90;;;10.80;62.40;;;;;;5081790;28;20191;-51
2022/01/05 00:22:03;;;;;;;1.80;1.70;;;10.60;63.00;;;;;;5074512;28;20243;-51
2022/01/05 00:24:28;;;;;;;1.93;1.83;;;10.60;63.80;;;;;;5078554;28;21118;-50
2022/01/05 00:26:54;;;;;;;2.10;1.90;;;10.60;63.30;;;;;;5083534;28;20495;-49
2022/01/05 00:29:20;;;;;;;2.00;1.83;;;10.70;63.70;;;;;;5076701;28;20510;-49
2022/01/05 00:31:45;;;;;;;1.60;1.50;;;10.80;63.20;;;;;;5079771;28;20640;-50
2022/01/05 00:34:11;;;;;;;1.80;1.70;;;10.80;63.20;;;;;;5083097;28;20203;-50
2022/01/05 00:36:36;;;;;;;3.60;1.60;;;10.90;62.40;;;;;;5083277;28;20184;-50
2022/01/05 00:39:03;;;;;;;1.33;1.30;;;10.90;62.90;;;;;;5085009;28;20202;-50
2022/01/05 00:41:28;;;;;;;1.10;1.10;;;10.90;62.70;;;;;;5085089;28;20202;-50
2022/01/05 00:43:54;;;;;;;1.17;1.07;;;10.90;62.40;;;;;;5076086;28;20434;-49
2022/01/05 00:46:19;;;;;;;1.20;1.10;;;10.80;62.30;;;;;;5081772;28;20241;-51
2022/01/05 00:48:45;;;;;;;1.33;1.17;;;10.40;63.40;;;;;;5086478;28;20590;-52
2022/01/05 00:51:11;;;;;;;0.97;0.93;;;10.40;64.20;;;;;;5079054;28;20687;-53
2022/01/05 00:53:38;;;;;;;0.83;0.80;;;10.40;64.10;;;;;;5087347;28;20198;-53
2022/01/05 00:56:04;;;;;;;1.63;1.10;;;10.20;63.90;;;;;;5079229;28;20494;-51
2022/01/05 00:58:29;;;;;;;1.30;1.00;;;10.40;64.50;;;;;;5079600;28;20433;-52
2022/01/05 01:00:56;;;;;;;2.07;0.93;;;10.20;64.10;;;;;;5083811;28;20441;-51
2022/01/05 01:03:22;;;;;;;1.40;1.00;;;10.50;64.30;;;;;;5089909;28;20253;-54
2022/01/05 01:05:48;;;;;;;1.03;0.80;;;10.50;63.50;;;;;;5078647;28;20441;-52
2022/01/05 01:08:13;;;;;;;0.60;0.60;;;10.40;63.20;;;;;;5088368;28;20491;-52
2022/01/05 01:10:39;;;;;;;0.50;0.50;;;10.30;63.80;;;;;;5076614;28;20198;-54
2022/01/05 01:13:05;;;;;;;0.80;0.80;;;10.30;63.70;;;;;;5081023;28;20882;-53
2022/01/05 01:15:31;;;;;;;1.07;0.70;;;10.50;63.40;;;;;;5080918;28;20438;-53
2022/01/05 01:17:57;;;;;;;0.80;0.80;;;10.60;63.00;;;;;;5091886;28;20198;-51
2022/01/05 01:20:22;;;;;;;1.30;1.00;;;10.70;63.00;;;;;;5076631;28;20941;-53
2022/01/05 01:22:49;;;;;;;1.47;0.90;;;10.60;63.00;;;;;;5082023;28;20663;-51
2022/01/05 01:25:15;;;;;;;0.87;0.87;;;10.50;63.20;;;;;;5082750;28;20214;-52
2022/01/05 01:27:43;;;;;;;0.90;0.70;;;10.70;62.90;;;;;;5093035;28;20485;-50
2022/01/05 01:30:10;;;;;;;0.90;0.63;;;10.80;62.60;;;;;;5094895;28;20481;-50
2022/01/05 01:32:36;;;;;;;0.73;0.60;;;10.80;62.20;;;;;;5087197;28;20482;-54
2022/01/05 01:35:04;;;;;;;0.70;0.70;;;10.80;62.00;;;;;;5086396;28;20945;-50
2022/01/05 01:37:29;;;;;;;1.57;0.60;;;10.80;61.80;;;;;;5084075;28;20883;-53
2022/01/05 01:39:55;;;;;;;0.63;0.63;;;10.70;61.90;;;;;;5081120;28;20458;-53
2022/01/05 01:42:20;;;;;;;0.60;0.60;;;10.80;61.80;;;;;;5080248;28;20655;-50
2022/01/05 01:44:46;;;;;;;2.40;0.80;;;10.90;61.40;;;;;;5084408;28;20199;-50
2022/01/05 01:47:11;;;;;;;0.80;0.60;;;11.10;61.30;;;;;;5083523;28;20222;-50
2022/01/05 01:49:37;;;;;;;1.17;0.60;;;11.00;60.70;;;;;;5087569;28;20248;-49
2022/01/05 01:52:03;;;;;;;0.60;0.60;;;10.90;60.70;;;;;;5083496;28;21913;-51
2022/01/05 01:54:30;;;;;;;0.50;0.50;;;11.00;61.10;;;;;;5082966;28;20226;-50
2022/01/05 01:56:56;;;;;;;1.47;0.50;;;10.90;61.50;;;;;;5083568;28;20540;-51
2022/01/05 01:59:21;;;;;;;0.80;0.50;;;10.80;61.70;;;;;;5090321;28;20437;-51
2022/01/05 02:01:47;;;;;;;0.50;0.50;;;10.80;61.90;;;;;;5080910;28;20458;-52
2022/01/05 02:04:13;;;;;;;0.70;0.60;;;10.90;61.80;;;;;;5083565;28;20188;-51
2022/01/05 02:06:38;;;;;;;0.60;0.60;;;10.90;61.70;;;;;;5081156;28;20336;-49
2022/01/05 02:09:05;;;;;;;0.80;0.50;;;10.80;61.80;;;;;;5084769;28;20588;-51
2022/01/05 02:11:33;;;;;;;1.90;0.63;;;10.90;61.90;;;;;;5086074;28;20199;-51
2022/01/05 02:13:59;;;;;;;0.73;0.53;;;10.80;61.50;;;;;;5083101;28;20482;-51
2022/01/05 02:16:31;;;;;;;0.60;0.60;;;10.60;61.70;;;;;;5077889;28;20433;-53
2022/01/05 02:18:58;;;;;;;0.50;0.50;;;10.60;62.30;;;;;;5085790;28;20206;-53
2022/01/05 02:21:30;;;;;;;0.60;0.50;;;10.20;62.70;;;;;;5085975;28;20468;-49
2022/01/05 02:23:55;;;;;;;0.60;0.50;;;10.10;63.50;;;;;;5078363;28;20449;-51
2022/01/05 02:26:21;;;;;;;1.43;0.60;;;10.20;63.70;;;;;;5088445;28;20995;-52
2022/01/05 02:28:46;;;;;;;0.50;0.50;;;10.20;63.30;;;;;;5081072;28;20287;-50
2022/01/05 02:31:12;;;;;;;0.60;0.50;;;10.10;63.00;;;;;;5090221;28;20198;-50
2022/01/05 02:33:42;;;;;;;0.70;0.60;;;10.20;63.50;;;;;;5084852;28;20325;-51
2022/01/05 02:36:11;;;;;;;0.50;0.50;;;10.20;63.30;;;;;;5090377;28;20210;-53
2022/01/05 02:38:37;;;;;;;0.50;0.50;;;10.20;63.00;;;;;;5082101;28;20461;-52
2022/01/05 02:41:10;;;;;;;1.47;0.70;;;10.30;62.90;;;;;;5077269;28;20784;-53
2022/01/05 02:43:38;;;;;;;0.50;0.50;;;10.00;63.00;;;;;;5092814;28;20215;-52
2022/01/05 02:46:04;;;;;;;0.60;0.60;;;10.10;63.90;;;;;;5096011;28;20490;-50
2022/01/05 02:48:32;;;;;;;1.07;0.73;;;9.90;64.50;;;;;;5092149;28;20488;-52
2022/01/05 02:50:58;;;;;;;0.60;0.50;;;9.70;65.70;;;;;;5088811;28;20429;-54
2022/01/05 02:53:24;;;;;;;0.60;0.50;;;9.60;66.00;;;;;;5090208;28;20449;-50
2022/01/05 02:55:51;;;;;;;1.13;0.50;;;9.60;66.50;;;;;;5077143;28;20441;-53
2022/01/05 02:58:16;;;;;;;1.03;0.70;;;9.60;66.30;;;;;;5086447;28;20313;-53
2022/01/05 03:00:42;;;;;;;0.70;0.70;;;9.80;65.90;;;;;;5088937;28;20516;-53
2022/01/05 03:03:08;;;;;;;1.00;0.60;;;9.90;65.60;;;;;;5087780;28;20218;-52
2022/01/05 03:05:33;;;;;;;0.60;0.60;;;9.70;64.90;;;;;;5086211;28;20194;-54
2022/01/05 03:07:59;;;;;;;0.83;0.57;;;9.50;66.40;;;;;;5080115;28;20278;-54
2022/01/05 03:10:25;;;;;;;0.57;0.57;;;9.50;66.50;;;;;;5090564;28;20256;-50
2022/01/05 03:12:50;;;;;;;0.50;0.50;;;9.40;66.80;;;;;;5089004;28;20270;-52
2022/01/05 03:15:16;;;;;;;0.47;0.47;;;9.40;66.90;;;;;;5084355;28;20206;-50
2022/01/05 03:17:42;;;;;;;0.50;0.50;;;9.40;67.10;;;;;;5089465;28;20195;-51
2022/01/05 03:20:09;;;;;;;0.50;0.50;;;9.30;66.80;;;;;;5086571;28;21019;-53
2022/01/05 03:22:35;;;;;;;0.70;0.60;;;9.30;67.60;;;;;;5084519;28;20448;-50
2022/01/05 03:25:02;;;;;;;0.50;0.50;;;9.20;67.20;;;;;;5094481;28;20506;-52
2022/01/05 03:27:28;;;;;;;0.50;0.40;;;9.40;67.50;;;;;;5088225;28;20493;-52
2022/01/05 03:29:53;;;;;;;0.50;0.50;;;9.50;67.20;;;;;;5089196;28;20441;-52
2022/01/05 03:32:20;;;;;;;1.33;0.70;;;9.40;67.20;;;;;;5077607;28;20191;-52
2022/01/05 03:34:46;;;;;;;0.60;0.50;;;9.30;67.60;;;;;;5086364;28;20268;-51
2022/01/05 03:37:12;;;;;;;1.07;0.60;;;9.20;68.10;;;;;;5078728;28;20446;-53
2022/01/05 03:39:38;;;;;;;0.63;0.63;;;9.40;67.70;;;;;;5083469;28;20431;-53
2022/01/05 03:42:04;;;;;;;0.50;0.50;;;9.50;67.40;;;;;;5086388;28;20198;-48
2022/01/05 03:44:30;;;;;;;0.50;0.50;;;9.60;67.50;;;;;;5082132;28;20479;-53
2022/01/05 03:46:56;;;;;;;0.60;0.50;;;9.60;67.00;;;;;;5091053;28;20553;-54
2022/01/05 03:49:23;;;;;;;0.90;0.63;;;9.60;67.50;;;;;;5079149;28;20278;-53
2022/01/05 03:51:48;;;;;;;0.60;0.60;;;9.60;66.70;;;;;;5074905;28;20222;-49
2022/01/05 03:54:14;;;;;;;0.57;0.50;;;9.80;66.60;;;;;;5078446;28;20456;-53
2022/01/05 03:56:39;;;;;;;1.17;0.60;;;9.70;66.20;;;;;;5083135;28;20195;-53
2022/01/05 03:59:05;;;;;;;1.07;0.60;;;9.80;66.40;;;;;;5090718;28;20709;-53
2022/01/05 04:01:31;;;;;;;0.50;0.50;;;9.70;65.90;;;;;;5092497;28;20196;-52
2022/01/05 04:03:56;;;;;;;0.70;0.50;;;9.80;66.10;;;;;;5092934;28;20280;-50
2022/01/05 04:06:22;;;;;;;0.80;0.60;;;9.90;65.80;;;;;;5082893;28;20196;-53
2022/01/05 04:08:47;;;;;;;0.60;0.50;;;9.90;65.20;;;;;;5087880;28;20231;-54
2022/01/05 04:11:13;;;;;;;1.07;0.53;;;9.90;65.00;;;;;;5079234;28;20210;-52
2022/01/05 04:13:38;;;;;;;0.57;0.57;;;9.90;65.20;;;;;;5079828;28;20202;-52
2022/01/05 04:16:06;;;;;;;2.73;0.53;;;9.70;65.40;;;;;;5074982;28;20192;-54
2022/01/05 04:18:31;;;;;;;0.70;0.40;;;9.70;65.90;;;;;;5080495;28;20207;-53
2022/01/05 04:20:57;;;;;;;0.50;0.50;;;9.70;65.90;;;;;;5082498;28;20933;-53
2022/01/05 04:23:22;;;;;;;0.50;0.40;;;9.70;66.40;;;;;;5080079;28;20211;-54
2022/01/05 04:25:48;;;;;;;0.40;0.40;;;9.40;66.40;;;;;;5075645;28;20241;-50
2022/01/05 04:28:14;;;;;;;0.50;0.43;;;9.30;67.40;;;;;;5083223;28;20632;-53
2022/01/05 04:30:39;;;;;;;0.60;0.50;;;9.30;68.30;;;;;;5085419;28;20271;-52
2022/01/05 04:33:05;;;;;;;0.40;0.40;;;9.10;68.40;;;;;;5086927;28;20882;-54
2022/01/05 04:35:30;;;;;;;0.40;0.40;;;9.20;68.60;;;;;;5082691;28;20199;-53
2022/01/05 04:37:56;;;;;;;0.90;0.53;;;9.10;68.40;;;;;;5086043;28;20236;-54
2022/01/05 04:40:22;;;;;;;0.80;0.50;;;9.00;68.90;;;;;;5075649;28;20601;-53
2022/01/05 04:42:47;;;;;;;0.50;0.50;;;8.90;69.70;;;;;;5087495;28;20191;-53
2022/01/05 04:45:13;;;;;;;0.80;0.80;;;8.90;70.50;;;;;;5092573;28;20219;-53
2022/01/05 04:47:38;;;;;;;0.50;0.50;;;8.80;70.50;;;;;;5077723;28;20227;-50
2022/01/05 04:50:05;;;;;;;0.60;0.50;;;8.80;71.50;;;;;;5085234;28;20196;-50
2022/01/05 04:52:31;;;;;;;0.60;0.60;;;8.90;72.40;;;;;;5086571;28;20202;-54
2022/01/05 04:54:56;;;;;;;1.30;1.20;;;8.80;72.10;;;;;;5099106;28;20523;-50
2022/01/05 04:57:22;;;;;;;2.00;0.60;;;9.10;72.60;;;;;;5091589;28;20195;-54
2022/01/05 04:59:47;;;;;;;0.60;0.60;;;9.20;71.00;;;;;;5093839;28;20256;-50
2022/01/05 05:02:14;;;;;;;0.70;0.70;;;9.00;71.20;;;;;;5084687;28;20266;-53
2022/01/05 05:04:40;;;;;;;0.87;0.70;;;9.10;71.20;;;;;;5090480;28;20574;-51
2022/01/05 05:07:05;;;;;;;1.13;0.60;;;9.40;71.20;;;;;;5076286;28;20482;-51
2022/01/05 05:09:31;;;;;;;0.80;0.60;;;9.20;70.60;;;;;;5077102;28;20275;-50
2022/01/05 05:11:57;;;;;;;1.00;0.90;;;9.50;71.20;;;;;;5087173;28;20206;-53
2022/01/05 05:14:23;;;;;;;0.50;0.50;;;9.70;71.20;;;;;;5088473;28;20553;-53
2022/01/05 05:16:48;;;;;;;0.53;0.53;;;9.60;69.60;;;;;;5086243;28;20570;-54
2022/01/05 05:19:14;;;;;;;1.13;0.70;;;9.60;70.10;;;;;;5100366;28;20194;-50
2022/01/05 05:21:40;;;;;;;0.60;0.60;;;9.60;70.30;;;;;;5084308;28;20690;-50
2022/01/05 05:24:05;;;;;;;0.80;0.67;;;9.30;70.30;;;;;;5089903;28;20208;-51
2022/01/05 05:26:31;;;;;;;2.20;1.17;;;9.50;70.80;;;;;;5087242;28;20697;-50
2022/01/05 05:28:57;;;;;;;1.13;0.80;;;9.50;70.40;;;;;;5088952;28;20287;-53
2022/01/05 05:31:22;;;;;;;0.83;0.80;;;9.70;70.50;;;;;;5084130;28;20191;-50
2022/01/05 05:33:48;;;;;;;0.80;0.77;;;9.80;68.60;;;;;;5077992;28;20208;-52
2022/01/05 05:36:14;;;;;;;0.80;0.80;;;9.20;64.20;;;;;;5083797;28;20190;-50
2022/01/05 05:38:39;;;;;;;2.03;1.83;;;8.80;66.20;;;;;;5076089;28;20200;-50
2022/01/05 05:41:05;;;;;;;1.20;0.90;;;8.80;66.00;;;;;;5094461;28;20199;-51
2022/01/05 05:43:30;;;;;;;1.57;1.10;;;8.70;66.60;;;;;;5084653;28;20630;-52
2022/01/05 05:45:56;;;;;;;2.50;2.10;;;8.70;66.40;;;;;;5092657;28;20193;-52
2022/01/05 05:48:22;;;;;;;52.97;28.37;;;8.60;65.30;;;;;;5085103;28;20245;-50
2022/01/05 05:50:47;;;;;;;23.03;12.50;;;8.30;65.40;;;;;;5089514;28;20214;-51
2022/01/05 05:53:13;;;;;;;26.73;15.47;;;8.30;66.00;;;;;;5093958;28;20205;-51
2022/01/05 05:55:39;;;;;;;3.27;2.50;;;8.10;66.10;;;;;;5086331;28;20912;-51
2022/01/05 05:58:05;;;;;;;1.80;1.70;;;7.90;67.10;;;;;;5096097;28;20451;-50
2022/01/05 06:00:30;;;;;;;1.67;1.57;;;7.90;67.40;;;;;;5087271;28;20281;-54
2022/01/05 06:03:00;;;;;;;1.67;1.50;;;8.00;67.00;;;;;;5109798;28;20203;-49
2022/01/05 06:05:25;;;;;;;2.43;1.60;;;8.10;66.50;;;;;;5093801;28;20191;-51
2022/01/05 06:07:51;;;;;;;1.60;1.50;;;8.20;65.70;;;;;;5092489;28;20484;-50
2022/01/05 06:10:17;;;;;;;2.13;1.80;;;8.00;65.50;;;;;;5086580;28;20192;-51
2022/01/05 06:12:42;;;;;;;2.40;1.57;;;8.00;66.50;;;;;;5083294;28;20230;-52
2022/01/05 06:15:08;;;;;;;1.63;1.53;;;8.10;66.60;;;;;;5090780;28;20591;-52
2022/01/05 06:17:34;;;;;;;2.30;1.67;;;8.20;66.10;;;;;;5088224;28;20206;-50
2022/01/05 06:20:00;;;;;;;1.93;1.67;;;8.20;65.90;;;;;;5094514;28;20433;-53
2022/01/05 06:22:26;;;;;;;3.97;3.60;;;8.40;65.60;;;;;;5098784;28;20970;-50
2022/01/05 06:24:52;;;;;;;2.33;2.13;;;8.30;65.60;;;;;;5088723;28;20217;-51
2022/01/05 06:27:17;;;;;;;2.10;1.90;;;8.40;65.90;;;;;;5094943;28;20572;-50
2022/01/05 06:29:43;;;;;;;1.60;1.50;;;8.40;65.20;;;;;;5093278;28;20187;-50
2022/01/05 06:32:09;;;;;;;2.17;1.90;;;8.30;65.60;;;;;;5083945;28;20195;-50
2022/01/05 06:34:35;;;;;;;1.73;1.63;;;8.30;65.60;;;;;;5091145;28;20862;-50
2022/01/05 06:37:00;;;;;;;2.00;1.90;;;8.30;65.80;;;;;;5083348;28;20674;-51
2022/01/05 06:39:26;;;;;;;2.40;2.03;;;8.30;65.80;;;;;;5088729;28;20203;-51
2022/01/05 06:41:52;;;;;;;2.30;1.90;;;8.40;65.70;;;;;;5088074;28;20841;-50
2022/01/05 06:44:17;;;;;;;2.30;2.10;;;8.60;65.80;;;;;;5089662;28;20832;-50
2022/01/05 06:46:43;;;;;;;3.43;2.57;;;8.70;65.40;;;;;;5093711;28;20252;-50
2022/01/05 06:49:09;;;;;;;2.10;1.90;;;8.60;65.30;;;;;;5084367;28;20542;-50
2022/01/05 06:51:34;;;;;;;2.13;2.00;;;8.70;65.40;;;;;;5089041;28;20601;-50
2022/01/05 06:54:00;;;;;;;3.20;2.30;;;8.70;65.40;;;;;;5089683;28;20216;-51
2022/01/05 06:56:26;;;;;;;2.80;1.80;;;8.70;65.20;;;;;;5085442;28;20903;-50
2022/01/05 06:58:51;;;;;;;1.87;1.77;;;8.80;65.00;;;;;;5090993;28;20244;-50
2022/01/05 07:01:17;;;;;;;3.17;2.60;;;8.90;64.70;;;;;;5091191;28;20736;-50
2022/01/05 07:03:43;;;;;;;2.80;2.33;;;8.90;64.70;;;;;;5089713;28;20210;-50
2022/01/05 07:06:08;;;;;;;2.57;2.10;;;8.90;64.40;;;;;;5089253;28;20200;-50
2022/01/05 07:08:34;;;;;;;1.67;1.57;;;8.90;64.20;;;;;;5092588;28;20694;-52
2022/01/05 07:10:59;;;;;;;1.93;1.83;;;8.80;64.40;;;;;;5091621;28;20198;-49
2022/01/05 07:13:25;;;;;;;2.17;1.70;;;8.60;64.90;;;;;;5085872;28;20233;-50
2022/01/05 07:15:50;;;;;;;2.90;1.80;;;8.50;65.10;;;;;;5088072;28;20669;-51
2022/01/05 07:18:16;;;;;;;1.50;1.40;;;8.50;65.30;;;;;;5086079;28;20202;-51
2022/01/05 07:20:42;;;;;;;2.80;1.30;;;8.40;65.00;;;;;;5090101;28;20234;-51
2022/01/05 07:23:11;;;;;;;6.97;1.90;;;8.30;64.90;;;;;;5077223;28;20844;-51
2022/01/05 07:25:37;;;;;;;1.80;1.33;;;8.40;64.60;;;;;;5081109;28;20435;-50
2022/01/05 07:28:02;;;;;;;1.40;1.30;;;8.40;64.10;;;;;;5080563;28;20511;-51
2022/01/05 07:30:28;;;;;;;1.40;1.30;;;8.40;64.20;;;;;;5096708;28;20209;-52
2022/01/05 07:32:54;;;;;;;1.50;1.40;;;8.50;63.90;;;;;;5086059;28;20673;-50
2022/01/05 07:35:19;;;;;;;2.50;1.30;;;8.60;63.80;;;;;;5091400;28;20324;-53
2022/01/05 07:37:45;;;;;;;1.30;1.20;;;8.50;64.00;;;;;;5082380;28;20529;-54
2022/01/05 07:40:11;;;;;;;0.80;0.80;;;8.30;63.90;;;;;;5082411;28;20230;-51
2022/01/05 07:42:38;;;;;;;1.83;1.20;;;8.10;64.00;;;;;;5084918;28;20198;-50
2022/01/05 07:45:06;;;;;;;2.50;1.30;;;8.30;64.00;;;;;;5087694;28;20432;-50
2022/01/05 07:47:33;;;;;;;1.20;1.10;;;8.30;63.70;;;;;;5085362;28;20619;-51
2022/01/05 07:49:58;;;;;;;0.83;0.83;;;8.30;63.80;;;;;;5088245;28;20436;-52
2022/01/05 07:52:24;;;;;;;1.40;1.10;;;8.20;63.90;;;;;;5089242;28;20953;-50
2022/01/05 07:54:52;;;;;;;2.23;1.20;;;8.10;64.40;;;;;;5085181;28;20309;-53
2022/01/05 07:57:18;;;;;;;2.13;1.93;;;8.20;65.00;;;;;;5087997;28;20594;-50
2022/01/05 07:59:44;;;;;;;1.90;1.80;;;8.00;64.80;;;;;;5087970;28;20900;-52
2022/01/05 08:02:09;;;;;;;4.97;1.77;;;8.00;65.20;;;;;;5075270;28;20457;-53
2022/01/05 08:04:35;;;;;;;1.67;1.50;;;7.90;64.20;;;;;;5079676;28;20885;-54
2022/01/05 08:07:01;;;;;;;3.10;1.50;;;7.70;63.60;;;;;;5077894;28;20216;-54
2022/01/05 08:09:29;;;;;;;1.93;1.13;;;7.60;64.40;;;;;;5088177;28;20206;-54
2022/01/05 08:11:55;;;;;;;1.73;1.63;;;7.50;64.30;;;;;;5082036;28;20647;-53
2022/01/05 08:14:21;;;;;;;1.50;1.40;;;7.60;64.60;;;;;;5088930;28;20433;-52
2022/01/05 08:16:46;;;;;;;2.73;1.50;;;7.70;64.00;;;;;;5086651;28;20794;-53
2022/01/05 08:19:12;;;;;;;2.00;1.80;;;7.50;64.30;;;;;;5091492;28;20191;-52
2022/01/05 08:21:38;;;;;;;1.70;1.60;;;7.50;64.10;;;;;;5094356;28;20628;-55
2022/01/05 08:24:04;;;;;;;2.10;1.63;;;7.50;63.30;;;;;;5071783;28;20611;-54
2022/01/05 08:26:29;;;;;;;4.27;1.60;;;7.50;63.40;;;;;;5076272;28;20214;-53
2022/01/05 08:28:55;;;;;;;4.30;1.70;;;7.50;63.20;;;;;;5082815;28;20482;-51
2022/01/05 08:31:21;;;;;;;3.70;2.10;;;7.50;63.60;;;;;;5083829;28;20655;-51
2022/01/05 08:33:46;;;;;;;5.60;1.77;;;7.60;63.20;;;;;;5084221;28;20191;-50
2022/01/05 08:36:12;;;;;;;2.13;1.60;;;7.60;63.10;;;;;;5089380;28;20187;-54
2022/01/05 08:38:38;;;;;;;1.90;1.80;;;7.50;62.90;;;;;;5093717;28;20203;-52
2022/01/05 08:41:03;;;;;;;4.67;2.60;;;7.70;62.80;;;;;;5089482;28;20191;-51
2022/01/05 08:43:31;;;;;;;2.37;2.17;;;7.50;62.90;;;;;;5097211;28;20203;-50
2022/01/05 08:45:57;;;;;;;4.13;2.10;;;7.40;62.70;;;;;;5096593;28;20840;-52
2022/01/05 08:48:22;;;;;;;2.33;1.90;;;7.30;62.90;;;;;;5090347;28;20481;-50
2022/01/05 08:50:48;;;;;;;2.47;2.00;;;7.60;62.90;;;;;;5098874;28;20195;-55
2022/01/05 08:53:14;;;;;;;4.67;2.03;;;7.60;62.30;;;;;;5097489;28;20207;-51
2022/01/05 08:55:42;;;;;;;5.90;3.37;;;7.60;61.60;;;;;;5093717;28;20226;-54
2022/01/05 08:58:09;;;;;;;2.93;1.90;;;7.60;61.60;;;;;;5090449;28;20218;-50
2022/01/05 09:00:36;;;;;;;3.23;2.00;;;7.60;61.60;;;;;;5096068;28;20443;-51
2022/01/05 09:03:02;;;;;;;5.73;2.03;;;7.30;61.30;;;;;;5087950;28;20931;-54
2022/01/05 09:05:28;;;;;;;4.07;2.00;;;7.10;62.40;;;;;;5083616;28;20482;-54
2022/01/05 09:07:54;;;;;;;2.50;2.20;;;7.20;62.40;;;;;;5082173;28;20488;-50
2022/01/05 09:10:19;;;;;;;4.07;2.40;;;7.20;62.20;;;;;;5091942;28;20184;-52
2022/01/05 09:12:45;;;;;;;7.50;2.50;;;7.10;61.60;;;;;;5085583;28;20438;-52
2022/01/05 09:15:11;;;;;;;4.40;1.83;;;6.80;60.10;;;;;;5087713;28;20195;-52
2022/01/05 09:17:38;;;;;;;5.30;2.20;;;6.60;61.10;;;;;;5081118;28;20187;-51
2022/01/05 09:20:05;;;;;;;4.90;2.00;;;6.80;61.90;;;;;;5080372;28;20752;-52
2022/01/05 09:22:30;;;;;;;3.43;1.63;;;6.70;60.00;;;;;;5081033;28;20949;-54
2022/01/05 09:24:57;;;;;;;2.67;1.67;;;6.70;59.30;;;;;;5082434;28;20426;-51
2022/01/05 09:27:22;;;;;;;3.33;1.73;;;7.00;59.90;;;;;;5084475;28;20239;-53
2022/01/05 09:29:49;;;;;;;2.30;1.80;;;7.00;59.30;;;;;;5077871;28;20506;-51
2022/01/05 09:32:16;;;;;;;4.10;1.97;;;6.90;58.80;;;;;;5086442;28;20203;-54
2022/01/05 09:34:43;;;;;;;4.63;2.03;;;7.10;58.20;;;;;;5083607;28;20487;-51
2022/01/05 09:37:17;;;;;;;5.17;2.17;;;6.90;56.40;;;;;;5089504;28;20619;-52
2022/01/05 09:42:27;;;;;;;5.73;2.17;;;6.90;57.30;;;;;;5091943;28;20505;-51
2022/01/05 09:44:54;;;;;;;5.87;1.97;;;6.80;56.50;;;;;;5092392;28;20499;-52
2022/01/05 09:47:57;;;;;;;8.30;2.30;;;6.80;56.80;;;;;;5087915;28;20245;-51
2022/01/05 09:50:25;;;;;;;4.27;2.53;;;6.80;57.00;;;;;;5102754;27;20998;-54
2022/01/05 09:52:51;;;;;;;5.17;3.43;;;6.70;55.70;;;;;;5101111;28;20924;-52
2022/01/05 09:55:17;;;;;;;4.90;2.87;;;6.80;56.40;;;;;;5090261;28;20468;-53
2022/01/05 09:57:45;;;;;;;4.00;2.57;;;7.20;57.00;;;;;;5084335;28;20433;-53
2022/01/05 10:00:14;;;;;;;7.63;2.30;;;7.20;56.70;;;;;;5075230;28;20964;-55
2022/01/05 10:02:41;;;;;;;3.10;1.87;;;7.20;56.40;;;;;;5093440;28;20429;-53
2022/01/05 10:05:12;;;;;;;7.40;2.13;;;7.20;55.70;;;;;;5081203;28;20440;-53
2022/01/05 10:07:38;;;;;;;3.80;1.57;;;7.20;56.00;;;;;;5073708;28;21005;-54
2022/01/05 10:10:05;;;;;;;5.10;1.60;;;7.40;56.50;;;;;;5077677;28;20487;-55
2022/01/05 10:12:31;;;;;;;3.17;1.90;;;7.20;55.90;;;;;;5094198;28;20437;-55
2022/01/05 10:14:56;;;;;;;3.33;1.83;;;7.10;56.90;;;;;;5083597;28;20426;-54
2022/01/05 10:17:28;;;;;;;7.30;2.30;;;7.10;57.20;;;;;;5089114;28;20812;-53
2022/01/05 10:20:05;;;;;;;6.70;2.30;;;7.00;57.40;;;;;;5083057;28;20731;-52
2022/01/05 10:22:43;;;;;;;4.63;1.70;;;6.90;57.50;;;;;;5083523;28;21034;-50
2022/01/05 10:25:21;;;;;;;5.97;1.90;;;7.20;57.10;;;;;;5085215;28;20444;-53
2022/01/05 10:28:00;;;;;;;3.97;2.00;;;7.10;55.40;;;;;;5083253;28;20546;-51
2022/01/05 10:30:40;;;;;;;7.60;2.23;;;7.10;55.60;;;;;;5077446;28;20839;-53
2022/01/05 10:33:06;;;;;;;4.20;1.67;;;7.00;54.50;;;;;;5091631;28;20471;-50
2022/01/05 10:35:33;;;;;;;3.63;1.73;;;7.10;54.90;;;;;;5083498;28;20475;-50
2022/01/05 10:38:09;;;;;;;3.70;1.73;;;7.00;53.60;;;;;;5079323;28;20444;-51
2022/01/05 10:40:37;;;;;;;4.97;1.90;;;7.30;53.50;;;;;;5083388;28;20427;-51
2022/01/05 10:43:08;;;;;;;6.37;1.80;;;7.30;53.50;;;;;;5086670;28;20483;-50
2022/01/05 10:45:41;;;;;;;5.43;2.20;;;7.80;53.30;;;;;;5086995;28;20433;-54
2022/01/05 10:48:16;;;;;;;2.80;2.03;;;7.80;51.80;;;;;;5088511;28;20571;-51
2022/01/05 10:50:43;;;;;;;2.63;1.67;;;7.70;51.40;;;;;;5083116;28;20430;-51
2022/01/05 10:53:15;;;;;;;2.50;1.37;;;7.40;51.00;;;;;;5091041;28;20521;-50
2022/01/05 10:55:43;;;;;;;7.73;3.50;;;7.40;51.90;;;;;;5082476;28;20847;-51
2022/01/05 10:58:12;;;;;;;7.87;1.90;;;7.30;52.30;;;;;;5089598;28;20452;-49
2022/01/05 11:00:44;;;;;;;9.97;2.00;;;7.30;52.70;;;;;;5086722;28;20437;-50
2022/01/05 11:03:37;;;;;;;2.33;1.63;;;7.20;52.50;;;;;;5087615;28;20792;-50
2022/01/05 11:06:09;;;;;;;6.80;3.03;;;7.30;53.00;;;;;;5091244;28;20441;-51
2022/01/05 11:08:55;;;;;;;4.40;1.50;;;7.10;52.30;;;;;;5085633;28;20546;-53
2022/01/05 11:11:38;;;;;;;6.10;1.70;;;7.30;53.00;;;;;;5093962;28;20436;-49
2022/01/05 11:14:11;;;;;;;4.43;1.77;;;7.50;53.00;;;;;;5091031;28;20438;-50
2022/01/05 11:16:41;;;;;;;5.67;2.03;;;7.70;52.60;;;;;;5079618;28;20442;-51
2022/01/05 11:19:23;;;;;;;5.47;1.87;;;7.60;51.80;;;;;;5090234;28;20437;-51
2022/01/05 11:22:06;;;;;;;5.70;1.90;;;7.50;51.80;;;;;;5079379;28;20562;-51
2022/01/05 11:24:40;;;;;;;4.57;1.93;;;7.10;51.10;;;;;;5079789;28;20444;-51
2022/01/05 11:27:09;;;;;;;4.33;1.77;;;7.20;52.10;;;;;;5078591;28;20477;-52
2022/01/05 11:29:35;;;;;;;9.03;1.90;;;7.40;51.40;;;;;;5086870;28;20426;-54
2022/01/05 11:32:07;;;;;;;7.97;2.03;;;7.20;51.50;;;;;;5078970;28;20471;-51
2022/01/05 11:34:33;;;;;;;8.93;2.27;;;7.30;51.90;;;;;;5086888;28;20823;-52
2022/01/05 11:37:03;;;;;;;4.60;1.70;;;7.40;51.90;;;;;;5087520;28;20441;-51
2022/01/05 11:39:31;;;;;;;4.80;2.13;;;7.60;51.60;;;;;;5084562;28;20457;-51
2022/01/05 11:41:59;;;;;;;5.97;2.53;;;7.50;51.50;;;;;;5082198;28;20491;-51
2022/01/05 11:44:29;;;;;;;4.10;2.07;;;7.70;51.40;;;;;;5088828;28;20448;-52
2022/01/05 11:46:55;;;;;;;2.53;1.30;;;7.60;51.40;;;;;;5085196;28;20438;-51
2022/01/05 11:49:27;;;;;;;4.33;1.67;;;7.50;51.40;;;;;;5087683;28;20974;-52
2022/01/05 11:51:55;;;;;;;6.73;2.00;;;7.70;51.80;;;;;;5071586;28;20495;-53
2022/01/05 11:54:30;;;;;;;4.33;1.60;;;7.90;52.10;;;;;;5097499;28;20944;-51
2022/01/05 11:57:06;;;;;;;5.13;2.07;;;7.60;50.90;;;;;;5085837;28;20443;-51
2022/01/05 11:59:35;;;;;;;4.37;2.33;;;7.50;51.10;;;;;;5083487;28;21005;-52
2022/01/05 12:02:01;;;;;;;2.57;1.70;;;7.50;51.50;;;;;;5087371;28;20904;-52
2022/01/05 12:04:27;;;;;;;8.67;2.33;;;7.70;51.40;;;;;;5081995;28;20536;-51
2022/01/05 12:07:00;;;;;;;9.20;2.20;;;7.80;50.90;;;;;;5086080;28;20191;-51
2022/01/05 12:09:28;;;;;;;6.83;1.73;;;8.00;51.20;;;;;;5085762;28;20794;-51
2022/01/05 12:11:54;;;;;;;5.30;2.60;;;8.10;50.20;;;;;;5083246;28;21056;-54
2022/01/05 12:14:20;;;;;;;3.33;1.63;;;8.20;49.90;;;;;;5090294;28;20464;-51
2022/01/05 12:17:01;;;;;;;3.17;1.90;;;8.10;50.00;;;;;;5088853;28;20441;-53
2022/01/05 12:19:30;;;;;;;7.47;1.90;;;8.20;50.40;;;;;;5086717;28;20191;-52
2022/01/05 12:21:57;;;;;;;7.27;2.40;;;8.20;50.30;;;;;;5085024;28;20546;-51
2022/01/05 12:25:03;;;;;;;5.00;1.80;;;7.70;49.60;;;;;;5085214;28;20441;-51
2022/01/05 12:27:32;;;;;;;4.67;2.20;;;7.60;50.60;;;;;;5075709;28;20503;-51
2022/01/05 12:30:00;;;;;;;6.70;2.20;;;7.60;50.60;;;;;;5085771;28;21247;-52
2022/01/05 12:32:41;;;;;;;5.40;2.33;;;7.60;50.50;;;;;;5088686;28;20517;-51
2022/01/05 12:35:20;;;;;;;5.60;1.93;;;7.50;50.70;;;;;;5083017;28;20434;-51
2022/01/05 12:37:53;;;;;;;2.73;1.90;;;7.80;51.10;;;;;;5089442;28;20437;-54
2022/01/05 12:40:29;;;;;;;6.00;1.90;;;7.70;50.60;;;;;;5084700;28;20445;-51
2022/01/05 12:43:09;;;;;;;6.63;2.13;;;7.50;50.20;;;;;;5082975;28;20586;-51
2022/01/05 12:45:51;;;;;;;8.23;1.90;;;7.40;50.80;;;;;;5077054;28;20430;-54
2022/01/05 12:48:32;;;;;;;6.83;1.40;;;7.50;50.30;;;;;;5081200;28;20498;-51
2022/01/05 12:51:15;;;;;;;4.13;1.80;;;7.50;50.20;;;;;;5085001;28;20444;-54
2022/01/05 12:54:08;;;;;;;7.33;1.97;;;7.80;50.40;;;;;;5080366;28;20456;-54
2022/01/05 12:56:37;;;;;;;5.87;1.80;;;8.00;50.60;;;;;;5088477;28;20875;-54
2022/01/05 12:59:08;;;;;;;5.30;1.53;;;7.80;48.70;;;;;;5073586;28;20484;-51